Time;durP1;ratioP1;P1;durP2;ratioP2;P2;SDS_P1;SDS_P2;PMS_P1;PMS_P2;Temp;Humidity;BMP_temperature;BMP_pressure;BME280_temperature;BME280_humidity;BME280_pressure;Samples;Min_cycle;Max_cycle;Signal;HPM_P1;HPM_P2
2021/04/07 00:01:26;;;;;;;;;;;;;;;;;;5047275;28;2792;-63
2021/04/07 00:03:52;;;;;;;;;;;;;;;;;;5046748;28;1285;-63
2021/04/07 00:06:17;;;;;;;;;;;;;;;;;;5050017;28;802;-64
2021/04/07 00:08:48;;;;;;;;;;;;;;;;;;5050039;28;830;-63
2021/04/07 00:11:13;;;;;;;;;;;;;;;;;;5048221;28;857;-62
2021/04/07 00:13:38;;;;;;;;;;;;;;;;;;5049501;28;1459;-62
2021/04/07 00:16:04;;;;;;;;;;;;;;;;;;5050492;28;871;-63
2021/04/07 00:18:29;;;;;;;;;;;;;;;;;;5049353;28;1082;-62
2021/04/07 00:20:55;;;;;;;;;;;;;;;;;;5050944;28;1066;-63
2021/04/07 00:23:20;;;;;;;;;;;;;;;;;;5050335;28;897;-63
2021/04/07 00:25:46;;;;;;;;;;;;;;;;;;5049986;28;890;-63
2021/04/07 00:28:12;;;;;;;;;;;;;;;;;;5049451;28;842;-63
2021/04/07 00:30:38;;;;;;;;;;;;;;;;;;5048971;28;1895;-63
2021/04/07 00:33:04;;;;;;;;;;;;;;;;;;5049736;28;862;-63
2021/04/07 00:35:29;;;;;;;;;;;;;;;;;;5048544;28;1343;-63
2021/04/07 00:37:55;;;;;;;;;;;;;;;;;;5049680;28;838;-63
2021/04/07 00:40:21;;;;;;;;;;;;;;;;;;5049963;28;894;-64
2021/04/07 00:42:47;;;;;;;;;;;;;;;;;;5048960;28;923;-64
2021/04/07 00:45:13;;;;;;;;;;;;;;;;;;5049347;28;908;-63
2021/04/07 00:47:38;;;;;;;;;;;;;;;;;;5049122;28;815;-64
2021/04/07 00:50:04;;;;;;;;;;;;;;;;;;5049024;28;1968;-64
2021/04/07 00:52:30;;;;;;;;;;;;;;;;;;5048799;28;898;-63
2021/04/07 00:54:55;;;;;;;;;;;;;;;;;;5067341;28;1142;-64
2021/04/07 00:57:21;;;;;;;;;;;;;;;;;;5070010;28;877;-63
2021/04/07 00:59:47;;;;;;;;;;;;;;;;;;5068695;28;902;-62
2021/04/07 01:02:15;;;;;;;;;;;;;;;;;;5068538;28;898;-64
2021/04/07 01:04:42;;;;;;;;;;;;;;;;;;5054466;28;1363;-63
2021/04/07 01:07:09;;;;;;;;;;;;;;;;;;5048983;28;850;-63
2021/04/07 01:09:34;;;;;;;;;;;;;;;;;;5047905;28;1885;-64
2021/04/07 01:12:00;;;;;;;;;;;;;;;;;;5048038;28;827;-64
2021/04/07 01:14:25;;;;;;;;;;;;;;;;;;5047874;28;1169;-63
2021/04/07 01:16:51;;;;;;;;;;;;;;;;;;5049212;28;858;-62
2021/04/07 01:19:18;;;;;;;;;;;;;;;;;;5047994;28;883;-60
2021/04/07 01:21:44;;;;;;;;;;;;;;;;;;5048427;28;879;-61
2021/04/07 01:24:09;;;;;;;;;;;;;;;;;;5048116;28;942;-60
2021/04/07 01:26:35;;;;;;;;;;;;;;;;;;5047752;28;815;-61
2021/04/07 01:29:00;;;;;;;;;;;;;;;;;;5047674;28;1922;-59
2021/04/07 01:31:26;;;;;;;;;;;;;;;;;;5048355;28;898;-61
2021/04/07 01:33:51;;;;;;;;;;;;;;;;;;5048169;28;1499;-58
2021/04/07 01:36:21;;;;;;;;;;;;;;;;;;5047392;28;1403;-59
2021/04/07 01:38:46;;;;;;;;;;;;;;;;;;5028086;28;974;-58
2021/04/07 01:41:12;;;;;;;;;;;;;;;;;;5027859;28;897;-58
2021/04/07 01:43:38;;;;;;;;;;;;;;;;;;5027562;28;949;-64
2021/04/07 01:46:04;;;;;;;;;;;;;;;;;;5027679;28;847;-64
2021/04/07 01:48:30;;;;;;;;;;;;;;;;;;5027851;28;721;-64
2021/04/07 01:50:56;;;;;;;;;;;;;;;;;;5027160;28;1898;-64
2021/04/07 01:53:22;;;;;;;;;;;;;;;;;;5038840;28;1075;-64
2021/04/07 01:55:47;;;;;;;;;;;;;;;;;;5067520;28;1099;-63
2021/04/07 01:58:13;;;;;;;;;;;;;;;;;;5067500;28;862;-64
2021/04/07 02:00:39;;;;;;;;;;;;;;;;;;5067677;28;917;-63
2021/04/07 02:03:05;;;;;;;;;;;;;;;;;;5063718;28;1359;-63
2021/04/07 02:05:31;;;;;;;;;;;;;;;;;;5047787;28;883;-63
2021/04/07 02:07:56;;;;;;;;;;;;;;;;;;5047184;28;823;-63
2021/04/07 02:10:22;;;;;;;;;;;;;;;;;;5048164;28;1886;-62
2021/04/07 02:12:51;;;;;;;;;;;;;;;;;;5047690;28;966;-64
2021/04/07 02:15:17;;;;;;;;;;;;;;;;;;5046952;28;906;-63
2021/04/07 02:17:44;;;;;;;;;;;;;;;;;;5047401;28;828;-63
2021/04/07 02:20:10;;;;;;;;;;;;;;;;;;5048682;28;1086;-64
2021/04/07 02:22:35;;;;;;;;;;;;;;;;;;5047966;28;1184;-64
2021/04/07 02:25:00;;;;;;;;;;;;;;;;;;5046961;28;861;-64
2021/04/07 02:27:26;;;;;;;;;;;;;;;;;;5047128;28;989;-65
2021/04/07 02:29:53;;;;;;;;;;;;;;;;;;5048419;28;1961;-64
2021/04/07 02:32:18;;;;;;;;;;;;;;;;;;5047296;28;847;-63
2021/04/07 02:34:44;;;;;;;;;;;;;;;;;;5046698;28;1201;-63
2021/04/07 02:37:10;;;;;;;;;;;;;;;;;;5047377;28;931;-63
2021/04/07 02:39:35;;;;;;;;;;;;;;;;;;5046967;28;886;-63
2021/04/07 02:42:01;;;;;;;;;;;;;;;;;;5047012;28;941;-64
2021/04/07 02:44:26;;;;;;;;;;;;;;;;;;5047022;28;902;-64
2021/04/07 02:46:51;;;;;;;;;;;;;;;;;;5048022;28;799;-61
2021/04/07 02:49:17;;;;;;;;;;;;;;;;;;5046969;28;1969;-62
2021/04/07 02:51:42;;;;;;;;;;;;;;;;;;5046737;28;875;-60
2021/04/07 02:54:08;;;;;;;;;;;;;;;;;;5058752;28;1019;-64
2021/04/07 02:56:33;;;;;;;;;;;;;;;;;;5066844;28;831;-64
2021/04/07 02:58:59;;;;;;;;;;;;;;;;;;5065417;28;1451;-63
2021/04/07 03:01:25;;;;;;;;;;;;;;;;;;5067414;28;828;-63
2021/04/07 03:03:51;;;;;;;;;;;;;;;;;;5053290;28;1257;-64
2021/04/07 03:06:17;;;;;;;;;;;;;;;;;;5046248;28;815;-63
2021/04/07 03:08:42;;;;;;;;;;;;;;;;;;5046391;28;815;-63
2021/04/07 03:11:08;;;;;;;;;;;;;;;;;;5047162;28;1950;-63
2021/04/07 03:13:33;;;;;;;;;;;;;;;;;;5046775;28;863;-64
2021/04/07 03:15:58;;;;;;;;;;;;;;;;;;5046530;28;867;-64
2021/04/07 03:18:24;;;;;;;;;;;;;;;;;;5047319;28;830;-63
2021/04/07 03:20:49;;;;;;;;;;;;;;;;;;5045986;28;878;-64
2021/04/07 03:23:14;;;;;;;;;;;;;;;;;;5046244;28;890;-63
2021/04/07 03:25:40;;;;;;;;;;;;;;;;;;5046706;28;830;-63
2021/04/07 03:28:05;;;;;;;;;;;;;;;;;;5049843;28;894;-64
2021/04/07 03:30:52;;;;;;;;;;;;;;;;;;5050386;28;1945;-63
2021/04/07 03:33:30;;;;;;;;;;;;;;;;;;5050184;28;1209;-63
2021/04/07 03:35:56;;;;;;;;;;;;;;;;;;5050983;28;933;-64
2021/04/07 03:38:22;;;;;;;;;;;;;;;;;;5051232;28;897;-63
2021/04/07 03:40:48;;;;;;;;;;;;;;;;;;5049818;28;949;-63
2021/04/07 03:43:14;;;;;;;;;;;;;;;;;;5050110;28;887;-63
2021/04/07 03:45:58;;;;;;;;;;;;;;;;;;5050549;28;819;-63
2021/04/07 03:48:25;;;;;;;;;;;;;;;;;;5051142;28;958;-63
2021/04/07 03:50:51;;;;;;;;;;;;;;;;;;5050952;28;1882;-61
2021/04/07 03:53:17;;;;;;;;;;;;;;;;;;5055168;28;1086;-63
2021/04/07 03:55:45;;;;;;;;;;;;;;;;;;5061688;28;1237;-62
2021/04/07 03:58:10;;;;;;;;;;;;;;;;;;5049924;28;800;-63
2021/04/07 04:00:35;;;;;;;;;;;;;;;;;;5049696;28;818;-62
2021/04/07 04:03:01;;;;;;;;;;;;;;;;;;5049279;28;1262;-63
2021/04/07 04:05:26;;;;;;;;;;;;;;;;;;5049698;28;819;-61
2021/04/07 04:07:52;;;;;;;;;;;;;;;;;;5050681;28;830;-60
2021/04/07 04:10:18;;;;;;;;;;;;;;;;;;5050159;28;1898;-61
2021/04/07 04:12:43;;;;;;;;;;;;;;;;;;5049625;28;897;-60
2021/04/07 04:15:10;;;;;;;;;;;;;;;;;;5048915;28;858;-63
2021/04/07 04:17:38;;;;;;;;;;;;;;;;;;5052334;28;1243;-62
2021/04/07 04:20:04;;;;;;;;;;;;;;;;;;5049478;28;906;-61
2021/04/07 04:22:29;;;;;;;;;;;;;;;;;;5046937;28;1661;-63
2021/04/07 04:24:54;;;;;;;;;;;;;;;;;;5039342;28;1353;-63
2021/04/07 04:27:20;;;;;;;;;;;;;;;;;;5049978;28;611;-62
2021/04/07 04:29:45;;;;;;;;;;;;;;;;;;5049266;28;1894;-63
2021/04/07 04:32:11;;;;;;;;;;;;;;;;;;5049360;28;827;-60
2021/04/07 04:34:36;;;;;;;;;;;;;;;;;;5049529;28;815;-60
2021/04/07 04:37:02;;;;;;;;;;;;;;;;;;5048975;28;838;-60
2021/04/07 04:39:27;;;;;;;;;;;;;;;;;;5049239;28;898;-58
2021/04/07 04:41:53;;;;;;;;;;;;;;;;;;5050095;28;1190;-58
2021/04/07 04:44:18;;;;;;;;;;;;;;;;;;5049400;28;894;-59
2021/04/07 04:46:43;;;;;;;;;;;;;;;;;;5048978;28;815;-60
2021/04/07 04:49:09;;;;;;;;;;;;;;;;;;5045218;28;1978;-62
2021/04/07 04:51:34;;;;;;;;;;;;;;;;;;5029740;28;840;-61
2021/04/07 04:53:59;;;;;;;;;;;;;;;;;;5045176;28;1210;-64
2021/04/07 04:56:25;;;;;;;;;;;;;;;;;;5048698;28;874;-64
2021/04/07 04:58:51;;;;;;;;;;;;;;;;;;5049733;28;883;-58
2021/04/07 05:01:16;;;;;;;;;;;;;;;;;;5052688;28;1040;-58
2021/04/07 05:03:41;;;;;;;;;;;;;;;;;;5052602;28;893;-62
2021/04/07 05:06:07;;;;;;;;;;;;;;;;;;5048174;28;878;-63
2021/04/07 05:08:32;;;;;;;;;;;;;;;;;;5048321;28;897;-63
2021/04/07 05:10:57;;;;;;;;;;;;;;;;;;5048191;28;1894;-63
2021/04/07 05:13:23;;;;;;;;;;;;;;;;;;5048888;28;902;-63
2021/04/07 05:15:48;;;;;;;;;;;;;;;;;;5048062;28;910;-62
2021/04/07 05:18:14;;;;;;;;;;;;;;;;;;5047593;28;820;-62
2021/04/07 05:20:40;;;;;;;;;;;;;;;;;;5048016;28;875;-62
2021/04/07 05:23:06;;;;;;;;;;;;;;;;;;5048232;28;874;-63
2021/04/07 05:25:31;;;;;;;;;;;;;;;;;;5047997;28;1415;-62
2021/04/07 05:27:57;;;;;;;;;;;;;;;;;;5048166;28;847;-62
2021/04/07 05:30:22;;;;;;;;;;;;;;;;;;5048731;28;1866;-63
2021/04/07 05:32:48;;;;;;;;;;;;;;;;;;5047967;28;932;-63
2021/04/07 05:35:13;;;;;;;;;;;;;;;;;;5047326;28;909;-63
2021/04/07 05:37:39;;;;;;;;;;;;;;;;;;5047274;28;890;-63
2021/04/07 05:40:05;;;;;;;;;;;;;;;;;;5048115;28;926;-62
2021/04/07 05:42:30;;;;;;;;;;;;;;;;;;5047805;28;903;-61
2021/04/07 05:44:55;;;;;;;;;;;;;;;;;;5045596;28;1160;-62
2021/04/07 05:47:21;;;;;;;;;;;;;;;;;;5035932;28;1280;-61
2021/04/07 05:49:46;;;;;;;;;;;;;;;;;;5046315;28;1922;-61
2021/04/07 05:52:12;;;;;;;;;;;;;;;;;;5037857;28;1716;-60
2021/04/07 05:54:38;;;;;;;;;;;;;;;;;;5053250;28;1162;-59
2021/04/07 05:57:03;;;;;;;;;;;;;;;;;;5054807;28;1142;-62
2021/04/07 05:59:29;;;;;;;;;;;;;;;;;;5055522;28;1162;-63
2021/04/07 06:01:55;;;;;;;;;;;;;;;;;;5052672;28;1113;-63
2021/04/07 06:04:20;;;;;;;;;;;;;;;;;;5048998;28;1111;-63
2021/04/07 06:06:45;;;;;;;;;;;;;;;;;;5055124;28;1241;-63
2021/04/07 06:09:11;;;;;;;;;;;;;;;;;;5066663;28;1893;-62
2021/04/07 06:11:36;;;;;;;;;;;;;;;;;;5063430;28;1079;-63
2021/04/07 06:14:02;;;;;;;;;;;;;;;;;;5067290;28;874;-63
2021/04/07 06:16:27;;;;;;;;;;;;;;;;;;5052410;28;994;-63
2021/04/07 06:18:53;;;;;;;;;;;;;;;;;;5050887;28;1162;-63
2021/04/07 06:21:18;;;;;;;;;;;;;;;;;;5065639;28;1673;-59
2021/04/07 06:23:44;;;;;;;;;;;;;;;;;;5037674;28;1643;-59
2021/04/07 06:26:10;;;;;;;;;;;;;;;;;;5032171;28;1770;-62
2021/04/07 06:28:35;;;;;;;;;;;;;;;;;;5046528;28;1073;-62
2021/04/07 06:31:01;;;;;;;;;;;;;;;;;;5046464;28;1898;-62
2021/04/07 06:33:31;;;;;;;;;;;;;;;;;;5046208;28;890;-61
2021/04/07 06:35:57;;;;;;;;;;;;;;;;;;5041179;28;1527;-61
2021/04/07 06:38:23;;;;;;;;;;;;;;;;;;5032379;28;1555;-61
2021/04/07 06:40:49;;;;;;;;;;;;;;;;;;5046035;28;859;-62
2021/04/07 06:43:15;;;;;;;;;;;;;;;;;;5046487;28;1036;-62
2021/04/07 06:45:40;;;;;;;;;;;;;;;;;;5046723;28;1148;-62
2021/04/07 06:48:07;;;;;;;;;;;;;;;;;;5047532;28;831;-61
2021/04/07 06:50:33;;;;;;;;;;;;;;;;;;5047146;28;1903;-59
2021/04/07 06:52:59;;;;;;;;;;;;;;;;;;5048884;28;978;-61
2021/04/07 06:55:25;;;;;;;;;;;;;;;;;;5061955;28;1385;-62
2021/04/07 06:57:51;;;;;;;;;;;;;;;;;;5053474;28;1758;-63
2021/04/07 07:00:17;;;;;;;;;;;;;;;;;;5049238;28;1068;-62
2021/04/07 07:02:43;;;;;;;;;;;;;;;;;;5050435;28;847;-62
2021/04/07 07:05:09;;;;;;;;;;;;;;;;;;5050947;28;835;-62
2021/04/07 07:07:34;;;;;;;;;;;;;;;;;;5061051;28;1266;-63
2021/04/07 07:10:00;;;;;;;;;;;;;;;;;;5067340;28;1890;-62
2021/04/07 07:12:26;;;;;;;;;;;;;;;;;;5051771;28;807;-62
2021/04/07 07:14:52;;;;;;;;;;;;;;;;;;5051656;28;851;-64
2021/04/07 07:17:27;;;;;;;;;;;;;;;;;;5050670;28;850;-62
2021/04/07 07:19:53;;;;;;;;;;;;;;;;;;5051347;28;826;-63
2021/04/07 07:22:23;;;;;;;;;;;;;;;;;;5051114;28;887;-63
2021/04/07 07:24:52;;;;;;;;;;;;;;;;;;5050555;28;815;-62
2021/04/07 07:27:18;;;;;;;;;;;;;;;;;;5050656;28;811;-63
2021/04/07 07:29:52;;;;;;;;;;;;;;;;;;5048381;28;1984;-62
2021/04/07 07:32:18;;;;;;;;;;;;;;;;;;5031206;28;1501;-62
2021/04/07 07:34:43;;;;;;;;;;;;;;;;;;5039247;28;1574;-63
2021/04/07 07:37:08;;;;;;;;;;;;;;;;;;5045461;28;842;-63
2021/04/07 07:39:37;;;;;;;;;;;;;;;;;;5048037;28;1588;-62
2021/04/07 07:42:07;;;;;;;;;;;;;;;;;;5040844;28;847;-61
2021/04/07 07:44:36;;;;;;;;;;;;;;;;;;5036677;28;1202;-63
2021/04/07 07:49:40;;;;;;;;;;;;;;;;;;5053152;28;1893;-63
2021/04/07 07:52:06;;;;;;;;;;;;;;;;;;5056239;28;1063;-62
2021/04/07 07:54:31;;;;;;;;;;;;;;;;;;5061304;28;1148;-61
2021/04/07 07:56:56;;;;;;;;;;;;;;;;;;5052199;28;1155;-63
2021/04/07 07:59:28;;;;;;;;;;;;;;;;;;5056243;28;1070;-61
2021/04/07 08:01:54;;;;;;;;;;;;;;;;;;5059596;28;1112;-63
2021/04/07 08:04:19;;;;;;;;;;;;;;;;;;5069574;28;1162;-62
2021/04/07 08:06:45;;;;;;;;;;;;;;;;;;5066992;28;1055;-63
2021/04/07 08:09:11;;;;;;;;;;;;;;;;;;5057603;28;2305;-63
2021/04/07 08:11:37;;;;;;;;;;;;;;;;;;5064016;28;1158;-64
2021/04/07 08:14:03;;;;;;;;;;;;;;;;;;5058400;28;1087;-62
2021/04/07 08:16:29;;;;;;;;;;;;;;;;;;5062111;28;1206;-64
2021/04/07 08:18:55;;;;;;;;;;;;;;;;;;5056808;28;1222;-62
2021/04/07 08:21:21;;;;;;;;;;;;;;;;;;5051754;28;1199;-62
2021/04/07 08:23:53;;;;;;;;;;;;;;;;;;5059141;28;1222;-63
2021/04/07 08:26:20;;;;;;;;;;;;;;;;;;5053752;28;1243;-64
2021/04/07 08:28:45;;;;;;;;;;;;;;;;;;5060596;28;1099;-62
2021/04/07 08:31:14;;;;;;;;;;;;;;;;;;5049074;28;1889;-63
2021/04/07 08:33:43;;;;;;;;;;;;;;;;;;5061014;28;1123;-66
2021/04/07 08:36:08;;;;;;;;;;;;;;;;;;5069622;28;937;-63
2021/04/07 08:38:34;;;;;;;;;;;;;;;;;;5066703;28;953;-63
2021/04/07 08:41:31;;;;;;;;;;;;;;;;;;5068656;28;874;-64
2021/04/07 08:43:57;;;;;;;;;;;;;;;;;;5056613;28;1492;-64
2021/04/07 08:46:23;;;;;;;;;;;;;;;;;;5068643;28;707;-64
2021/04/07 08:48:49;;;;;;;;;;;;;;;;;;5068972;28;914;-63
2021/04/07 08:51:16;;;;;;;;;;;;;;;;;;5069092;28;1964;-64
2021/04/07 08:53:43;;;;;;;;;;;;;;;;;;5068841;28;1086;-64
2021/04/07 08:56:13;;;;;;;;;;;;;;;;;;5068162;28;899;-64
2021/04/07 08:58:52;;;;;;;;;;;;;;;;;;5068513;28;839;-64
2021/04/07 09:01:19;;;;;;;;;;;;;;;;;;5068701;28;863;-64
2021/04/07 09:03:44;;;;;;;;;;;;;;;;;;5068627;28;881;-63
2021/04/07 09:06:14;;;;;;;;;;;;;;;;;;5067501;28;1319;-64
2021/04/07 09:08:51;;;;;;;;;;;;;;;;;;5068929;28;1563;-64
2021/04/07 09:11:25;;;;;;;;;;;;;;;;;;5068321;28;1960;-64
2021/04/07 09:13:51;;;;;;;;;;;;;;;;;;5066637;28;1199;-63
2021/04/07 09:16:16;;;;;;;;;;;;;;;;;;5068466;28;975;-63
2021/04/07 09:18:47;;;;;;;;;;;;;;;;;;5068344;28;906;-63
2021/04/07 09:21:15;;;;;;;;;;;;;;;;;;5068251;28;882;-64
2021/04/07 09:23:40;;;;;;;;;;;;;;;;;;5067963;28;889;-64
2021/04/07 09:26:13;;;;;;;;;;;;;;;;;;5065926;28;819;-64
2021/04/07 09:28:41;;;;;;;;;;;;;;;;;;5067790;28;815;-63
2021/04/07 09:31:06;;;;;;;;;;;;;;;;;;5054414;28;1960;-64
2021/04/07 09:33:35;;;;;;;;;;;;;;;;;;5048464;28;870;-64
2021/04/07 09:36:01;;;;;;;;;;;;;;;;;;5048159;28;942;-64
2021/04/07 09:38:28;;;;;;;;;;;;;;;;;;5048535;28;858;-64
2021/04/07 09:41:05;;;;;;;;;;;;;;;;;;5048951;28;846;-64
2021/04/07 09:43:31;;;;;;;;;;;;;;;;;;5048411;28;831;-63
2021/04/07 09:46:09;;;;;;;;;;;;;;;;;;5105525;27;1622;-65
2021/04/07 09:48:37;;;;;;;;;;;;;;;;;;5104981;28;878;-65
2021/04/07 09:51:13;;;;;;;;;;;;;;;;;;5105212;28;823;-65
2021/04/07 09:53:38;;;;;;;;;;;;;;;;;;5112368;28;1110;-65
2021/04/07 09:56:04;;;;;;;;;;;;;;;;;;5124994;27;842;-65
2021/04/07 09:58:40;;;;;;;;;;;;;;;;;;5125362;27;901;-65
2021/04/07 10:01:05;;;;;;;;;;;;;;;;;;5124958;27;822;-65
2021/04/07 10:03:30;;;;;;;;;;;;;;;;;;5125258;27;842;-65
2021/04/07 10:05:56;;;;;;;;;;;;;;;;;;5125344;27;1917;-66
2021/04/07 10:08:25;;;;;;;;;;;;;;;;;;5126481;27;882;-65
2021/04/07 10:10:50;;;;;;;;;;;;;;;;;;5125451;27;925;-65
2021/04/07 10:13:17;;;;;;;;;;;;;;;;;;5125227;27;826;-65
2021/04/07 10:15:42;;;;;;;;;;;;;;;;;;5125517;27;893;-64
2021/04/07 10:18:09;;;;;;;;;;;;;;;;;;5124789;27;913;-65
2021/04/07 10:20:34;;;;;;;;;;;;;;;;;;5121711;27;1050;-65
2021/04/07 10:23:05;;;;;;;;;;;;;;;;;;5125286;27;953;-64
2021/04/07 10:25:31;;;;;;;;;;;;;;;;;;5125044;27;1894;-64
2021/04/07 10:28:02;;;;;;;;;;;;;;;;;;5125378;27;850;-65
2021/04/07 10:30:35;;;;;;;;;;;;;;;;;;5124461;27;856;-64
2021/04/07 10:33:00;;;;;;;;;;;;;;;;;;5125238;27;614;-65
2021/04/07 10:35:27;;;;;;;;;;;;;;;;;;5125871;27;878;-65
2021/04/07 10:37:52;;;;;;;;;;;;;;;;;;5125439;27;906;-64
2021/04/07 10:40:19;;;;;;;;;;;;;;;;;;5104764;27;1363;-65
2021/04/07 10:42:44;;;;;;;;;;;;;;;;;;5104319;28;897;-65
2021/04/07 10:45:10;;;;;;;;;;;;;;;;;;5103535;28;1889;-65
2021/04/07 10:47:37;;;;;;;;;;;;;;;;;;5102365;28;830;-64
2021/04/07 10:50:03;;;;;;;;;;;;;;;;;;5104319;28;917;-64
2021/04/07 10:52:39;;;;;;;;;;;;;;;;;;5103950;28;862;-64
2021/04/07 10:55:06;;;;;;;;;;;;;;;;;;5088432;28;1904;-64
2021/04/07 10:57:35;;;;;;;;;;;;;;;;;;5069651;28;851;-64
2021/04/07 11:00:01;;;;;;;;;;;;;;;;;;5074947;28;810;-64
2021/04/07 11:02:26;;;;;;;;;;;;;;;;;;5089963;28;822;-65
2021/04/07 11:04:52;;;;;;;;;;;;;;;;;;5090603;28;1902;-64
2021/04/07 11:07:17;;;;;;;;;;;;;;;;;;5089435;28;1076;-64
2021/04/07 11:09:47;;;;;;;;;;;;;;;;;;5090033;28;898;-64
2021/04/07 11:12:13;;;;;;;;;;;;;;;;;;5089846;28;913;-64
2021/04/07 11:14:39;;;;;;;;;;;;;;;;;;5082933;28;1781;-63
2021/04/07 11:17:05;;;;;;;;;;;;;;;;;;5084324;28;1682;-62
2021/04/07 11:19:35;;;;;;;;;;;;;;;;;;5075750;28;1479;-65
2021/04/07 11:22:01;;;;;;;;;;;;;;;;;;5089000;28;1471;-64
2021/04/07 11:24:26;;;;;;;;;;;;;;;;;;5088812;28;1893;-65
2021/04/07 11:26:53;;;;;;;;;;;;;;;;;;5089594;28;838;-64
2021/04/07 11:29:18;;;;;;;;;;;;;;;;;;5087583;28;1234;-64
2021/04/07 11:31:44;;;;;;;;;;;;;;;;;;5080920;28;2062;-64
2021/04/07 11:34:12;;;;;;;;;;;;;;;;;;5089973;28;1383;-64
2021/04/07 11:44:27;;;;;;;;;;;;;;;;;;5080358;28;1901;-64
2021/04/07 11:46:52;;;;;;;;;;;;;;;;;;5089249;28;862;-65
2021/04/07 11:49:18;;;;;;;;;;;;;;;;;;5075663;28;1634;-65
2021/04/07 11:51:43;;;;;;;;;;;;;;;;;;5088481;28;989;-65
2021/04/07 11:54:10;;;;;;;;;;;;;;;;;;5088433;28;1113;-64
2021/04/07 11:56:44;;;;;;;;;;;;;;;;;;5088923;28;842;-64
2021/04/07 11:59:19;;;;;;;;;;;;;;;;;;5088430;28;890;-63
2021/04/07 12:01:46;;;;;;;;;;;;;;;;;;5087837;28;843;-65
2021/04/07 12:04:12;;;;;;;;;;;;;;;;;;5070314;28;1925;-64
2021/04/07 12:06:37;;;;;;;;;;;;;;;;;;5067559;28;866;-64
2021/04/07 12:09:04;;;;;;;;;;;;;;;;;;5067213;28;811;-64
2021/04/07 12:11:29;;;;;;;;;;;;;;;;;;5074022;28;1092;-65
2021/04/07 12:13:55;;;;;;;;;;;;;;;;;;5084773;28;1145;-63
2021/04/07 12:16:21;;;;;;;;;;;;;;;;;;5067923;28;1237;-63
2021/04/07 12:18:46;;;;;;;;;;;;;;;;;;5067902;28;1013;-64
2021/04/07 12:21:13;;;;;;;;;;;;;;;;;;5068738;28;850;-64
2021/04/07 12:23:38;;;;;;;;;;;;;;;;;;5067212;28;1392;-63
2021/04/07 12:26:04;;;;;;;;;;;;;;;;;;5066872;28;1902;-65
2021/04/07 12:28:29;;;;;;;;;;;;;;;;;;5066817;28;827;-64
2021/04/07 12:30:55;;;;;;;;;;;;;;;;;;5067059;28;848;-64
2021/04/07 12:33:22;;;;;;;;;;;;;;;;;;5067017;28;883;-64
2021/04/07 12:35:48;;;;;;;;;;;;;;;;;;5068106;28;909;-64
2021/04/07 12:38:13;;;;;;;;;;;;;;;;;;5068141;28;875;-64
2021/04/07 12:40:40;;;;;;;;;;;;;;;;;;5067732;28;874;-64
2021/04/07 12:43:06;;;;;;;;;;;;;;;;;;5067481;28;868;-64
2021/04/07 12:45:31;;;;;;;;;;;;;;;;;;5084002;28;1905;-64
2021/04/07 12:47:56;;;;;;;;;;;;;;;;;;5088297;28;858;-65
2021/04/07 12:50:22;;;;;;;;;;;;;;;;;;5087380;28;1277;-64
2021/04/07 12:52:47;;;;;;;;;;;;;;;;;;5088177;28;1184;-64
2021/04/07 12:55:13;;;;;;;;;;;;;;;;;;5108536;28;923;-64
2021/04/07 12:57:38;;;;;;;;;;;;;;;;;;5091860;28;1352;-64
2021/04/07 13:00:04;;;;;;;;;;;;;;;;;;5087254;28;842;-64
2021/04/07 13:02:30;;;;;;;;;;;;;;;;;;5087631;28;1003;-64
2021/04/07 13:04:55;;;;;;;;;;;;;;;;;;5088115;28;1972;-64
2021/04/07 13:07:21;;;;;;;;;;;;;;;;;;5087623;28;869;-64
2021/04/07 13:09:50;;;;;;;;;;;;;;;;;;5087286;28;815;-64
2021/04/07 13:12:15;;;;;;;;;;;;;;;;;;5087169;28;874;-64
2021/04/07 13:14:41;;;;;;;;;;;;;;;;;;5087084;28;930;-64
2021/04/07 13:17:06;;;;;;;;;;;;;;;;;;5087263;28;839;-64
2021/04/07 13:19:32;;;;;;;;;;;;;;;;;;5087716;28;802;-64
2021/04/07 13:21:57;;;;;;;;;;;;;;;;;;5087156;28;1698;-64
2021/04/07 13:24:23;;;;;;;;;;;;;;;;;;5087920;28;1966;-64
2021/04/07 13:26:48;;;;;;;;;;;;;;;;;;5087261;28;1052;-63
2021/04/07 13:29:14;;;;;;;;;;;;;;;;;;5087133;28;839;-63
2021/04/07 13:31:39;;;;;;;;;;;;;;;;;;5087255;28;839;-64
2021/04/07 13:34:06;;;;;;;;;;;;;;;;;;5087227;28;918;-64
2021/04/07 13:36:54;;;;;;;;;;;;;;;;;;5087400;28;889;-64
2021/04/07 13:39:37;;;;;;;;;;;;;;;;;;5080612;28;1527;-64
2021/04/07 13:44:43;;;;;;;;;;;;;;;;;;5085899;28;1951;-64
2021/04/07 13:47:11;;;;;;;;;;;;;;;;;;5069139;28;898;-64
2021/04/07 13:49:36;;;;;;;;;;;;;;;;;;5075415;28;989;-64
2021/04/07 13:52:02;;;;;;;;;;;;;;;;;;5086821;28;1290;-65
2021/04/07 13:54:27;;;;;;;;;;;;;;;;;;5101355;28;1030;-64
2021/04/07 13:57:06;;;;;;;;;;;;;;;;;;5088174;28;1241;-64
2021/04/07 13:59:32;;;;;;;;;;;;;;;;;;5085131;28;1075;-63
2021/04/07 14:01:58;;;;;;;;;;;;;;;;;;5084064;28;1495;-64
2021/04/07 14:04:24;;;;;;;;;;;;;;;;;;5084822;28;1889;-65
2021/04/07 14:06:49;;;;;;;;;;;;;;;;;;5091426;28;1098;-65
2021/04/07 14:09:15;;;;;;;;;;;;;;;;;;5090837;28;1463;-63
2021/04/07 14:11:41;;;;;;;;;;;;;;;;;;5086546;28;1273;-64
2021/04/07 14:14:11;;;;;;;;;;;;;;;;;;5081584;28;1591;-67
2021/04/07 14:16:39;;;;;;;;;;;;;;;;;;5079478;28;1024;-65
2021/04/07 14:19:07;;;;;;;;;;;;;;;;;;5086897;28;1119;-66
2021/04/07 14:21:35;;;;;;;;;;;;;;;;;;5086243;28;1483;-65
2021/04/07 14:24:02;;;;;;;;;;;;;;;;;;5086179;28;1898;-65
2021/04/07 14:26:30;;;;;;;;;;;;;;;;;;5087128;28;913;-65
2021/04/07 14:28:57;;;;;;;;;;;;;;;;;;5086315;28;1174;-64
2021/04/07 14:31:24;;;;;;;;;;;;;;;;;;5088961;28;1067;-64
2021/04/07 14:33:51;;;;;;;;;;;;;;;;;;5090907;28;807;-63
2021/04/07 14:36:19;;;;;;;;;;;;;;;;;;5090128;28;866;-64
2021/04/07 14:38:50;;;;;;;;;;;;;;;;;;5087305;28;929;-63
2021/04/07 14:41:17;;;;;;;;;;;;;;;;;;5090223;28;862;-63
2021/04/07 14:43:48;;;;;;;;;;;;;;;;;;5089251;28;849;-63
2021/04/07 14:46:16;;;;;;;;;;;;;;;;;;5089924;28;886;-64
2021/04/07 14:48:44;;;;;;;;;;;;;;;;;;5089542;28;890;-64
2021/04/07 14:51:32;;;;;;;;;;;;;;;;;;5087616;28;1370;-64
2021/04/07 14:54:07;;;;;;;;;;;;;;;;;;5070720;28;1080;-65
2021/04/07 14:56:36;;;;;;;;;;;;;;;;;;5068907;28;1079;-64
2021/04/07 14:59:04;;;;;;;;;;;;;;;;;;5068822;28;1155;-64
2021/04/07 15:01:33;;;;;;;;;;;;;;;;;;5067145;28;1179;-64
2021/04/07 15:04:00;;;;;;;;;;;;;;;;;;5069560;28;1948;-64
2021/04/07 15:06:27;;;;;;;;;;;;;;;;;;5052386;28;1187;-64
2021/04/07 15:08:55;;;;;;;;;;;;;;;;;;5070575;28;1190;-64
2021/04/07 15:11:22;;;;;;;;;;;;;;;;;;5069395;28;1159;-64
2021/04/07 15:13:50;;;;;;;;;;;;;;;;;;5069018;28;1163;-64
2021/04/07 15:16:19;;;;;;;;;;;;;;;;;;5069221;28;1167;-63
2021/04/07 15:18:47;;;;;;;;;;;;;;;;;;5061421;28;1067;-63
2021/04/07 15:21:15;;;;;;;;;;;;;;;;;;5068017;28;1202;-63
2021/04/07 15:23:43;;;;;;;;;;;;;;;;;;5061873;28;1623;-64
2021/04/07 15:26:14;;;;;;;;;;;;;;;;;;5049953;28;1890;-64
2021/04/07 15:28:42;;;;;;;;;;;;;;;;;;5068620;28;1222;-64
2021/04/07 15:31:15;;;;;;;;;;;;;;;;;;5071421;28;1195;-63
2021/04/07 15:33:43;;;;;;;;;;;;;;;;;;5053667;28;1562;-63
2021/04/07 15:36:11;;;;;;;;;;;;;;;;;;5065043;28;1171;-64
2021/04/07 15:38:39;;;;;;;;;;;;;;;;;;5068522;28;1175;-64
2021/04/07 15:41:08;;;;;;;;;;;;;;;;;;5068019;28;1072;-63
2021/04/07 15:43:36;;;;;;;;;;;;;;;;;;5068505;28;1163;-63
2021/04/07 15:46:03;;;;;;;;;;;;;;;;;;5088343;28;1963;-63
2021/04/07 15:48:28;;;;;;;;;;;;;;;;;;5088737;28;1221;-63
2021/04/07 15:50:56;;;;;;;;;;;;;;;;;;5089126;28;1102;-65
2021/04/07 15:53:22;;;;;;;;;;;;;;;;;;5091542;28;1155;-64
2021/04/07 15:55:48;;;;;;;;;;;;;;;;;;5095928;28;1154;-65
2021/04/07 15:58:14;;;;;;;;;;;;;;;;;;5090592;28;1154;-63
2021/04/07 16:00:40;;;;;;;;;;;;;;;;;;5087458;28;1242;-66
2021/04/07 16:03:05;;;;;;;;;;;;;;;;;;5087805;28;1145;-64
2021/04/07 16:05:31;;;;;;;;;;;;;;;;;;5088651;28;1993;-65
2021/04/07 16:07:57;;;;;;;;;;;;;;;;;;5088014;28;1154;-64
2021/04/07 16:10:24;;;;;;;;;;;;;;;;;;5086915;28;1252;-65
2021/04/07 16:12:49;;;;;;;;;;;;;;;;;;5085841;28;1158;-65
2021/04/07 16:15:14;;;;;;;;;;;;;;;;;;5087945;28;1221;-65
2021/04/07 16:17:40;;;;;;;;;;;;;;;;;;5088220;28;1170;-65
2021/04/07 16:20:06;;;;;;;;;;;;;;;;;;5087393;28;1368;-65
2021/04/07 16:22:32;;;;;;;;;;;;;;;;;;5086294;28;1523;-64
2021/04/07 16:24:58;;;;;;;;;;;;;;;;;;5086771;28;1890;-65
2021/04/07 16:27:23;;;;;;;;;;;;;;;;;;5086760;28;1119;-64
2021/04/07 16:29:49;;;;;;;;;;;;;;;;;;5087733;28;1234;-64
2021/04/07 16:32:14;;;;;;;;;;;;;;;;;;5087888;28;1028;-65
2021/04/07 16:34:39;;;;;;;;;;;;;;;;;;5085888;28;1199;-64
2021/04/07 16:37:05;;;;;;;;;;;;;;;;;;5083937;28;1253;-65
2021/04/07 16:39:31;;;;;;;;;;;;;;;;;;5086268;28;1198;-64
2021/04/07 16:41:57;;;;;;;;;;;;;;;;;;5087958;28;882;-65
2021/04/07 16:44:22;;;;;;;;;;;;;;;;;;5088195;28;1968;-64
2021/04/07 16:46:48;;;;;;;;;;;;;;;;;;5087987;28;921;-64
2021/04/07 16:49:14;;;;;;;;;;;;;;;;;;5088131;28;898;-62
2021/04/07 16:51:40;;;;;;;;;;;;;;;;;;5076946;28;1035;-64
2021/04/07 16:54:06;;;;;;;;;;;;;;;;;;5076983;28;1091;-64
2021/04/07 16:56:31;;;;;;;;;;;;;;;;;;5084590;28;1162;-66
2021/04/07 16:58:57;;;;;;;;;;;;;;;;;;5080214;28;1253;-66
2021/04/07 17:01:22;;;;;;;;;;;;;;;;;;5071044;28;1146;-67
2021/04/07 17:03:48;;;;;;;;;;;;;;;;;;5067186;28;882;-67
2021/04/07 17:06:14;;;;;;;;;;;;;;;;;;5077077;28;1890;-66
2021/04/07 17:08:39;;;;;;;;;;;;;;;;;;5066563;28;823;-65
2021/04/07 17:11:05;;;;;;;;;;;;;;;;;;5067378;28;887;-64
2021/04/07 17:13:30;;;;;;;;;;;;;;;;;;5067158;28;841;-64
2021/04/07 17:15:55;;;;;;;;;;;;;;;;;;5067464;28;831;-63
2021/04/07 17:18:21;;;;;;;;;;;;;;;;;;5066912;28;1016;-63
2021/04/07 17:20:46;;;;;;;;;;;;;;;;;;5067699;28;815;-63